Historique des stations

Station météo de Chailles

Altitude de la station : 86 m







Données météorologiques pour le 14/08/2022
Date
Heure
Températures Humidité Point de rosée Vitesse
du vent
Direction Rafales Windchill Pression Pluviométrie
Cumul
Date
Heure
Températures Humidité Point de rosée Vitesse
du vent
Direction Rafales Windchill Pression Pluviométrie
Cumul
14/08/2022 06:0320.5 °C88 %18.4 °C8 km/hSSO13 km/h20.51008 hPa0.0 mm
14/08/2022 05:5820.6 °C88 %18.5 °C6 km/hOSO15 km/h20.61008 hPa0.0 mm
14/08/2022 05:4820.7 °C87 %18.5 °C10 km/hSO16 km/h20.71008 hPa0.0 mm
14/08/2022 05:4320.8 °C86 %18.4 °C10 km/hOSO16 km/h20.81008 hPa0.0 mm
14/08/2022 05:3321.1 °C85 %18.5 °C11 km/hO19 km/h21.11008 hPa0.0 mm
14/08/2022 05:2821.2 °C84 %18.4 °C11 km/hSO19 km/h21.21008 hPa0.0 mm
14/08/2022 05:1821.4 °C83 %18.4 °C11 km/hOSO18 km/h21.41008 hPa0.0 mm
14/08/2022 05:1321.5 °C83 %18.5 °C6 km/hSO21 km/h21.21008 hPa0.0 mm
14/08/2022 05:0321.7 °C81 %18.3 °C11 km/hO19 km/h21.71008 hPa0.0 mm
14/08/2022 04:5821.8 °C81 %18.4 °C11 km/hO19 km/h21.81008 hPa0.0 mm
14/08/2022 04:4822.1 °C79 %18.2 °C11 km/hSSO21 km/h22.11009 hPa0.0 mm
14/08/2022 04:4322.1 °C79 %18.3 °C8 km/hOSO26 km/h21.81009 hPa0.0 mm
14/08/2022 04:3322.2 °C77 %18.0 °C16 km/hO27 km/h21.11008 hPa0.0 mm
14/08/2022 04:2822.2 °C76 %17.8 °C19 km/hOSO27 km/h21.91008 hPa0.0 mm
14/08/2022 04:1822.4 °C73 %17.4 °C13 km/hOSO23 km/h22.21008 hPa0.0 mm
14/08/2022 04:1322.5 °C72 %17.2 °C10 km/hOSO23 km/h22.21008 hPa0.0 mm
14/08/2022 04:0322.8 °C69 %16.8 °C15 km/hOSO31 km/h22.11008 hPa0.0 mm
14/08/2022 03:5823.1 °C63 %15.6 °C16 km/hSSO31 km/h22.31008 hPa0.0 mm
14/08/2022 03:4823.0 °C54 %13.2 °C11 km/hOSO23 km/h23.01008 hPa0.0 mm
14/08/2022 03:4322.7 °C50 %11.8 °C16 km/hSO23 km/h22.71008 hPa0.0 mm
14/08/2022 03:3322.4 °C49 %11.1 °C3 km/hSO8 km/h22.41007 hPa0.0 mm
14/08/2022 03:2822.5 °C50 %11.6 °C2 km/hSO8 km/h22.51007 hPa0.0 mm
14/08/2022 03:1822.2 °C50 %11.2 °C6 km/hSO16 km/h22.21007 hPa0.0 mm
14/08/2022 03:1321.8 °C51 %11.2 °C6 km/hSO23 km/h21.81007 hPa0.0 mm
14/08/2022 03:0320.4 °C56 %11.3 °C5 km/hSO23 km/h20.41007 hPa0.0 mm
14/08/2022 02:5820.3 °C58 %11.7 °C---20.31006 hPa0.0 mm
14/08/2022 02:5320.2 °C59 %11.9 °C---20.21006 hPa0.0 mm
14/08/2022 02:4319.9 °C57 %11.2 °C---19.91006 hPa0.0 mm
14/08/2022 02:3820.0 °C57 %11.2 °C---20.01006 hPa0.0 mm
14/08/2022 02:2820.1 °C58 %11.6 °C---20.11006 hPa0.0 mm
14/08/2022 02:2320.2 °C57 %11.4 °C---20.21006 hPa0.0 mm
14/08/2022 02:1320.3 °C56 %11.3 °C---20.31006 hPa0.0 mm
14/08/2022 02:0820.4 °C56 %11.3 °C---20.41006 hPa0.0 mm
14/08/2022 01:5820.6 °C55 %11.2 °C---20.61006 hPa0.0 mm
14/08/2022 01:5320.7 °C54 %11.1 °C---20.71007 hPa0.0 mm
14/08/2022 01:4321.2 °C53 %11.2 °C---21.21007 hPa0.0 mm
14/08/2022 01:3321.8 °C52 %11.5 °C---21.81007 hPa0.0 mm
14/08/2022 01:2822.3 °C51 %11.7 °C-ENE3 km/h22.31007 hPa0.0 mm
14/08/2022 01:1823.3 °C48 %11.7 °C2 km/hE3 km/h23.31007 hPa0.0 mm
14/08/2022 01:1323.8 °C46 %11.5 °C2 km/hENE3 km/h23.81007 hPa0.0 mm
14/08/2022 01:0324.3 °C43 %10.9 °C3 km/hE6 km/h24.31007 hPa0.0 mm
14/08/2022 00:5824.3 °C43 %10.9 °C2 km/hENE8 km/h24.31007 hPa0.0 mm
14/08/2022 00:5324.2 °C43 %10.8 °C5 km/hENE8 km/h24.21007 hPa0.0 mm
14/08/2022 00:4324.2 °C43 %10.8 °C6 km/hNE8 km/h24.21007 hPa0.0 mm
14/08/2022 00:3824.3 °C43 %10.9 °C3 km/hENE8 km/h24.31007 hPa0.0 mm
14/08/2022 00:2824.7 °C42 %10.9 °C3 km/hE8 km/h24.71007 hPa0.0 mm
14/08/2022 00:2824.7 °C42 %10.9 °C2 km/hENE8 km/h24.71007 hPa0.0 mm
14/08/2022 00:1325.1 °C41 %10.9 °C2 km/hENE6 km/h25.11008 hPa0.0 mm
14/08/2022 00:0825.2 °C41 %11.0 °C3 km/h--25.21007 hPa0.0 mm


Minima :

Température : 19.9 °C
Humidité : 41 %
Point de rosée : 10.8 °C
Vent moyen : 2 km/h
Windchill : 19.9
Pression atm. : 1006 hPa
Maxima :

Température : 25.2 °C
Humidité : 88 %
Point de rosée : 18.5 °C
Vent moyen : 19 km/h
Windchill : 25.2
Pression atm. : 1009 hPa
Rafales max : 31 km/h
Cumul de pluie sur 24H : 0 mm

Chailles est une commune du département Loir-et-Cher (41).
La station météorologique du réseau de l'association la plus proche de Chailles est celle de Tour-en-Sologne
Site du propriétaire de la station : http://jmj41.com/meteo/



Icône Facebook Association Météo Centre Icône Twitter Association Météo Centre Icône Chaîne Youtube Association Météo Centre Icône contact Association Météo Centre Icône Insta Association Météo Centre